Terminal Aerodrome Forecast
Issued by NWS Portland, OR

Home | Current Version | Previous Version | Text Only | Print | Product List | Glossary On
Versions: 1 2 3 4 5 6 7 8 9 10 11 12 13 14 15 16 17
000
FTUS46 KPQR 231129
TAFEUG
TAF
KEUG 231129Z 2312/2412 19005KT P6SM BKN045 OVC070
     FM231500 19007KT P6SM -RA SCT025 OVC050
     FM231800 21011KT P6SM -SHRA BKN025 OVC040
     FM232300 22011KT P6SM -RA OVC050
     FM240300 24008KT P6SM -RA SCT025 OVC035=

USA.gov is the U.S. government's official web portal to all federal, state and local government web resources and services.